sensor_id;sensor_type;location;lat;lon;timestamp;temperature;humidity
1405;DHT22;697;51.114;6.542;2024-02-23T00:01:45;7.00;99.90
1405;DHT22;697;51.114;6.542;2024-02-23T00:04:12;7.00;99.90
1405;DHT22;697;51.114;6.542;2024-02-23T00:06:39;7.10;99.90
1405;DHT22;697;51.114;6.542;2024-02-23T00:09:07;7.10;99.90
1405;DHT22;697;51.114;6.542;2024-02-23T00:11:34;7.10;99.90
1405;DHT22;697;51.114;6.542;2024-02-23T00:14:05;7.10;99.90
1405;DHT22;697;51.114;6.542;2024-02-23T00:16:37;7.10;99.90
1405;DHT22;697;51.114;6.542;2024-02-23T00:19:04;7.10;99.90
1405;DHT22;697;51.114;6.542;2024-02-23T00:21:31;7.10;99.90
1405;DHT22;697;51.114;6.542;2024-02-23T00:23:58;7.10;99.90
1405;DHT22;697;51.114;6.542;2024-02-23T00:26:26;7.10;99.90
1405;DHT22;697;51.114;6.542;2024-02-23T00:28:53;7.10;99.90
1405;DHT22;697;51.114;6.542;2024-02-23T00:31:20;7.10;99.90
1405;DHT22;697;51.114;6.542;2024-02-23T00:33:47;7.10;99.90
1405;DHT22;697;51.114;6.542;2024-02-23T00:36:14;7.10;99.90
1405;DHT22;697;51.114;6.542;2024-02-23T00:38:41;7.10;99.90
1405;DHT22;697;51.114;6.542;2024-02-23T00:41:07;7.10;99.90
1405;DHT22;697;51.114;6.542;2024-02-23T00:43:39;7.20;99.90
1405;DHT22;697;51.114;6.542;2024-02-23T00:46:06;7.20;99.90
1405;DHT22;697;51.114;6.542;2024-02-23T00:48:33;7.20;99.90
1405;DHT22;697;51.114;6.542;2024-02-23T00:51:01;7.20;99.90
1405;DHT22;697;51.114;6.542;2024-02-23T00:53:28;7.30;99.90
1405;DHT22;697;51.114;6.542;2024-02-23T00:55:55;7.30;99.90
1405;DHT22;697;51.114;6.542;2024-02-23T00:58:21;7.20;99.90
1405;DHT22;697;51.114;6.542;2024-02-23T01:00:49;7.20;99.90
1405;DHT22;697;51.114;6.542;2024-02-23T01:03:16;7.20;99.90
1405;DHT22;697;51.114;6.542;2024-02-23T01:05:43;7.20;99.90
1405;DHT22;697;51.114;6.542;2024-02-23T01:08:10;7.20;99.90
1405;DHT22;697;51.114;6.542;2024-02-23T01:10:37;7.10;99.90
1405;DHT22;697;51.114;6.542;2024-02-23T01:13:04;7.10;99.90
1405;DHT22;697;51.114;6.542;2024-02-23T01:15:31;7.10;99.90
1405;DHT22;697;51.114;6.542;2024-02-23T01:17:59;7.10;99.90
1405;DHT22;697;51.114;6.542;2024-02-23T01:20:26;7.10;99.90
1405;DHT22;697;51.114;6.542;2024-02-23T01:22:53;7.10;99.90
1405;DHT22;697;51.114;6.542;2024-02-23T01:25:20;7.20;99.90
1405;DHT22;697;51.114;6.542;2024-02-23T01:27:47;7.10;99.90
1405;DHT22;697;51.114;6.542;2024-02-23T01:30:14;7.10;99.90
1405;DHT22;697;51.114;6.542;2024-02-23T01:32:41;7.10;99.90
1405;DHT22;697;51.114;6.542;2024-02-23T01:35:09;7.10;99.90
1405;DHT22;697;51.114;6.542;2024-02-23T01:37:36;7.10;99.90
1405;DHT22;697;51.114;6.542;2024-02-23T01:40:04;7.10;99.90
1405;DHT22;697;51.114;6.542;2024-02-23T01:42:31;7.10;99.90
1405;DHT22;697;51.114;6.542;2024-02-23T01:44:58;7.10;99.90
1405;DHT22;697;51.114;6.542;2024-02-23T01:47:27;7.10;99.90
1405;DHT22;697;51.114;6.542;2024-02-23T01:49:55;7.10;99.90
1405;DHT22;697;51.114;6.542;2024-02-23T01:52:24;7.10;99.90
1405;DHT22;697;51.114;6.542;2024-02-23T01:54:51;7.00;99.90
1405;DHT22;697;51.114;6.542;2024-02-23T01:57:18;7.00;99.90
1405;DHT22;697;51.114;6.542;2024-02-23T01:59:45;7.00;99.90
1405;DHT22;697;51.114;6.542;2024-02-23T02:02:12;7.00;99.90
1405;DHT22;697;51.114;6.542;2024-02-23T02:04:39;7.00;99.90
1405;DHT22;697;51.114;6.542;2024-02-23T02:07:05;7.00;99.90
1405;DHT22;697;51.114;6.542;2024-02-23T02:09:34;7.00;99.90
1405;DHT22;697;51.114;6.542;2024-02-23T02:12:00;7.10;99.90
1405;DHT22;697;51.114;6.542;2024-02-23T02:14:27;7.00;99.90
1405;DHT22;697;51.114;6.542;2024-02-23T02:16:57;7.00;99.90
1405;DHT22;697;51.114;6.542;2024-02-23T02:19:23;7.00;99.90
1405;DHT22;697;51.114;6.542;2024-02-23T02:21:50;6.90;99.90
1405;DHT22;697;51.114;6.542;2024-02-23T02:24:17;6.90;99.90
1405;DHT22;697;51.114;6.542;2024-02-23T02:26:45;6.90;99.90
1405;DHT22;697;51.114;6.542;2024-02-23T02:29:15;6.90;99.90
1405;DHT22;697;51.114;6.542;2024-02-23T02:31:42;6.90;99.90
1405;DHT22;697;51.114;6.542;2024-02-23T02:34:08;6.90;99.90
1405;DHT22;697;51.114;6.542;2024-02-23T02:36:38;6.90;99.90
1405;DHT22;697;51.114;6.542;2024-02-23T02:39:05;6.90;99.90
1405;DHT22;697;51.114;6.542;2024-02-23T02:41:32;6.80;99.90
1405;DHT22;697;51.114;6.542;2024-02-23T02:44:01;6.80;99.90
1405;DHT22;697;51.114;6.542;2024-02-23T02:46:27;6.80;99.90
1405;DHT22;697;51.114;6.542;2024-02-23T02:48:54;6.90;99.90
1405;DHT22;697;51.114;6.542;2024-02-23T02:51:21;6.90;99.90
1405;DHT22;697;51.114;6.542;2024-02-23T02:53:48;6.80;99.90
1405;DHT22;697;51.114;6.542;2024-02-23T02:56:15;6.80;99.90
1405;DHT22;697;51.114;6.542;2024-02-23T02:58:41;6.80;99.90
1405;DHT22;697;51.114;6.542;2024-02-23T03:01:09;6.90;99.90
1405;DHT22;697;51.114;6.542;2024-02-23T03:03:36;6.90;99.90
1405;DHT22;697;51.114;6.542;2024-02-23T03:06:03;6.90;99.90
1405;DHT22;697;51.114;6.542;2024-02-23T03:08:31;6.90;99.90
1405;DHT22;697;51.114;6.542;2024-02-23T03:10:57;6.90;99.90
1405;DHT22;697;51.114;6.542;2024-02-23T03:13:24;6.90;99.90
1405;DHT22;697;51.114;6.542;2024-02-23T03:15:51;6.90;99.90
1405;DHT22;697;51.114;6.542;2024-02-23T03:18:19;7.00;99.90
1405;DHT22;697;51.114;6.542;2024-02-23T03:20:46;7.00;99.90
1405;DHT22;697;51.114;6.542;2024-02-23T03:23:13;7.00;99.90
1405;DHT22;697;51.114;6.542;2024-02-23T03:25:40;7.00;99.90
1405;DHT22;697;51.114;6.542;2024-02-23T03:28:06;7.00;99.90
1405;DHT22;697;51.114;6.542;2024-02-23T03:30:33;7.00;99.90
1405;DHT22;697;51.114;6.542;2024-02-23T03:33:00;7.00;99.90
1405;DHT22;697;51.114;6.542;2024-02-23T03:35:28;6.90;99.90
1405;DHT22;697;51.114;6.542;2024-02-23T03:37:55;6.90;99.90
1405;DHT22;697;51.114;6.542;2024-02-23T03:40:22;6.90;99.90
1405;DHT22;697;51.114;6.542;2024-02-23T03:42:48;6.90;99.90
1405;DHT22;697;51.114;6.542;2024-02-23T03:45:15;6.90;99.90
1405;DHT22;697;51.114;6.542;2024-02-23T03:47:42;6.90;99.90
1405;DHT22;697;51.114;6.542;2024-02-23T03:50:09;6.90;99.90
1405;DHT22;697;51.114;6.542;2024-02-23T03:52:38;6.90;99.90
1405;DHT22;697;51.114;6.542;2024-02-23T03:55:06;6.90;99.90
1405;DHT22;697;51.114;6.542;2024-02-23T03:57:33;6.90;99.90
1405;DHT22;697;51.114;6.542;2024-02-23T04:00:00;6.90;99.90
1405;DHT22;697;51.114;6.542;2024-02-23T04:02:26;6.90;99.90
1405;DHT22;697;51.114;6.542;2024-02-23T04:04:53;6.90;99.90
1405;DHT22;697;51.114;6.542;2024-02-23T04:07:20;6.90;99.90
1405;DHT22;697;51.114;6.542;2024-02-23T04:09:48;7.00;99.90
1405;DHT22;697;51.114;6.542;2024-02-23T04:12:20;7.00;99.90
1405;DHT22;697;51.114;6.542;2024-02-23T04:14:47;7.00;99.90
1405;DHT22;697;51.114;6.542;2024-02-23T04:17:14;7.00;99.90
1405;DHT22;697;51.114;6.542;2024-02-23T04:19:41;7.00;99.90
1405;DHT22;697;51.114;6.542;2024-02-23T04:22:08;6.90;99.90
1405;DHT22;697;51.114;6.542;2024-02-23T04:24:36;7.00;99.90
1405;DHT22;697;51.114;6.542;2024-02-23T04:27:04;7.00;99.90
1405;DHT22;697;51.114;6.542;2024-02-23T04:29:31;7.00;99.90
1405;DHT22;697;51.114;6.542;2024-02-23T04:31:59;7.00;99.90
1405;DHT22;697;51.114;6.542;2024-02-23T04:34:26;7.10;99.90
1405;DHT22;697;51.114;6.542;2024-02-23T04:36:53;7.10;99.90
1405;DHT22;697;51.114;6.542;2024-02-23T04:39:20;7.20;99.90
1405;DHT22;697;51.114;6.542;2024-02-23T04:41:48;7.20;99.90
1405;DHT22;697;51.114;6.542;2024-02-23T04:44:16;7.20;99.90
1405;DHT22;697;51.114;6.542;2024-02-23T04:46:43;7.20;99.90
1405;DHT22;697;51.114;6.542;2024-02-23T04:49:10;7.20;99.90
1405;DHT22;697;51.114;6.542;2024-02-23T04:51:38;7.20;99.90
1405;DHT22;697;51.114;6.542;2024-02-23T04:54:05;7.20;99.90
1405;DHT22;697;51.114;6.542;2024-02-23T04:56:32;7.20;99.90
1405;DHT22;697;51.114;6.542;2024-02-23T04:59:00;7.20;99.90
1405;DHT22;697;51.114;6.542;2024-02-23T05:01:28;7.20;99.90
1405;DHT22;697;51.114;6.542;2024-02-23T05:03:54;7.20;99.90
1405;DHT22;697;51.114;6.542;2024-02-23T05:06:21;7.20;99.90
1405;DHT22;697;51.114;6.542;2024-02-23T05:08:48;7.30;99.90
1405;DHT22;697;51.114;6.542;2024-02-23T05:11:15;7.30;99.90
1405;DHT22;697;51.114;6.542;2024-02-23T05:13:42;7.30;99.90
1405;DHT22;697;51.114;6.542;2024-02-23T05:16:09;7.30;99.90
1405;DHT22;697;51.114;6.542;2024-02-23T05:18:37;7.30;99.90
1405;DHT22;697;51.114;6.542;2024-02-23T05:21:04;7.30;99.90
1405;DHT22;697;51.114;6.542;2024-02-23T05:23:31;7.30;99.90
1405;DHT22;697;51.114;6.542;2024-02-23T05:25:58;7.30;99.90
1405;DHT22;697;51.114;6.542;2024-02-23T05:28:25;7.30;99.90
1405;DHT22;697;51.114;6.542;2024-02-23T05:30:53;7.30;99.90
1405;DHT22;697;51.114;6.542;2024-02-23T05:33:20;7.30;99.90
1405;DHT22;697;51.114;6.542;2024-02-23T05:35:48;7.40;99.90
1405;DHT22;697;51.114;6.542;2024-02-23T05:38:15;7.40;99.90
1405;DHT22;697;51.114;6.542;2024-02-23T05:40:42;7.30;99.90
1405;DHT22;697;51.114;6.542;2024-02-23T05:43:09;7.40;99.90
1405;DHT22;697;51.114;6.542;2024-02-23T05:45:36;7.40;99.90
1405;DHT22;697;51.114;6.542;2024-02-23T05:48:03;7.40;99.90
1405;DHT22;697;51.114;6.542;2024-02-23T05:50:30;7.40;99.90
1405;DHT22;697;51.114;6.542;2024-02-23T05:52:58;7.50;99.90
1405;DHT22;697;51.114;6.542;2024-02-23T05:55:25;7.50;99.90
1405;DHT22;697;51.114;6.542;2024-02-23T05:57:52;7.60;99.90
1405;DHT22;697;51.114;6.542;2024-02-23T06:00:19;7.60;99.90
1405;DHT22;697;51.114;6.542;2024-02-23T06:02:47;7.60;99.90
1405;DHT22;697;51.114;6.542;2024-02-23T06:05:14;7.70;99.90
1405;DHT22;697;51.114;6.542;2024-02-23T06:07:41;7.70;99.90
1405;DHT22;697;51.114;6.542;2024-02-23T06:10:09;7.60;99.90
1405;DHT22;697;51.114;6.542;2024-02-23T06:12:36;7.60;99.90
1405;DHT22;697;51.114;6.542;2024-02-23T06:15:04;7.60;99.90
1405;DHT22;697;51.114;6.542;2024-02-23T06:17:31;7.60;99.90
1405;DHT22;697;51.114;6.542;2024-02-23T06:19:58;7.60;99.90
1405;DHT22;697;51.114;6.542;2024-02-23T06:22:25;7.70;99.90
1405;DHT22;697;51.114;6.542;2024-02-23T06:24:52;7.60;99.90
1405;DHT22;697;51.114;6.542;2024-02-23T06:27:20;7.60;99.90
1405;DHT22;697;51.114;6.542;2024-02-23T06:29:47;7.60;99.90
1405;DHT22;697;51.114;6.542;2024-02-23T06:32:14;7.60;99.90
1405;DHT22;697;51.114;6.542;2024-02-23T06:34:41;7.60;99.90
1405;DHT22;697;51.114;6.542;2024-02-23T06:37:08;7.60;99.90
1405;DHT22;697;51.114;6.542;2024-02-23T06:39:35;7.60;99.90
1405;DHT22;697;51.114;6.542;2024-02-23T06:42:01;7.60;99.90
1405;DHT22;697;51.114;6.542;2024-02-23T06:44:31;7.50;99.90
1405;DHT22;697;51.114;6.542;2024-02-23T06:46:58;7.50;99.90
1405;DHT22;697;51.114;6.542;2024-02-23T06:49:24;7.50;99.90
1405;DHT22;697;51.114;6.542;2024-02-23T06:51:51;7.50;99.90
1405;DHT22;697;51.114;6.542;2024-02-23T06:54:19;7.50;99.90
1405;DHT22;697;51.114;6.542;2024-02-23T06:56:45;7.50;99.90
1405;DHT22;697;51.114;6.542;2024-02-23T06:59:12;7.60;99.90
1405;DHT22;697;51.114;6.542;2024-02-23T07:01:49;7.60;99.90
1405;DHT22;697;51.114;6.542;2024-02-23T07:04:16;7.60;99.90
1405;DHT22;697;51.114;6.542;2024-02-23T07:06:43;7.50;99.90
1405;DHT22;697;51.114;6.542;2024-02-23T07:09:10;7.50;99.90
1405;DHT22;697;51.114;6.542;2024-02-23T07:11:38;7.50;99.90
1405;DHT22;697;51.114;6.542;2024-02-23T07:14:07;7.50;99.90
1405;DHT22;697;51.114;6.542;2024-02-23T07:16:37;7.50;99.90
1405;DHT22;697;51.114;6.542;2024-02-23T07:19:07;7.50;99.90
1405;DHT22;697;51.114;6.542;2024-02-23T07:21:35;7.60;99.90
1405;DHT22;697;51.114;6.542;2024-02-23T07:24:01;7.60;99.90
1405;DHT22;697;51.114;6.542;2024-02-23T07:26:28;7.60;99.90
1405;DHT22;697;51.114;6.542;2024-02-23T07:28:55;7.70;99.90
1405;DHT22;697;51.114;6.542;2024-02-23T07:31:22;7.70;99.90
1405;DHT22;697;51.114;6.542;2024-02-23T07:33:49;7.70;99.90
1405;DHT22;697;51.114;6.542;2024-02-23T07:36:18;7.80;99.90
1405;DHT22;697;51.114;6.542;2024-02-23T07:38:45;7.80;99.90
1405;DHT22;697;51.114;6.542;2024-02-23T07:41:12;7.90;99.90
1405;DHT22;697;51.114;6.542;2024-02-23T07:43:39;7.90;99.90
1405;DHT22;697;51.114;6.542;2024-02-23T07:46:06;8.00;99.90
1405;DHT22;697;51.114;6.542;2024-02-23T07:48:34;8.10;99.90
1405;DHT22;697;51.114;6.542;2024-02-23T07:51:01;8.20;99.90
1405;DHT22;697;51.114;6.542;2024-02-23T07:53:30;8.30;99.90
1405;DHT22;697;51.114;6.542;2024-02-23T07:55:57;8.30;99.40
1405;DHT22;697;51.114;6.542;2024-02-23T07:58:25;8.20;99.30
1405;DHT22;697;51.114;6.542;2024-02-23T08:00:52;8.20;99.40
1405;DHT22;697;51.114;6.542;2024-02-23T08:03:19;8.20;99.10
1405;DHT22;697;51.114;6.542;2024-02-23T08:05:46;8.20;99.50
1405;DHT22;697;51.114;6.542;2024-02-23T08:08:13;8.30;99.80
1405;DHT22;697;51.114;6.542;2024-02-23T08:10:41;8.30;99.40
1405;DHT22;697;51.114;6.542;2024-02-23T08:13:08;8.30;99.30
1405;DHT22;697;51.114;6.542;2024-02-23T08:15:36;8.40;99.60
1405;DHT22;697;51.114;6.542;2024-02-23T08:18:03;8.40;99.20
1405;DHT22;697;51.114;6.542;2024-02-23T08:20:30;8.50;99.10
1405;DHT22;697;51.114;6.542;2024-02-23T08:22:56;8.60;99.10
1405;DHT22;697;51.114;6.542;2024-02-23T08:25:22;8.60;98.90
1405;DHT22;697;51.114;6.542;2024-02-23T08:27:50;8.60;98.80
1405;DHT22;697;51.114;6.542;2024-02-23T08:30:17;8.70;98.70
1405;DHT22;697;51.114;6.542;2024-02-23T08:32:45;8.70;98.50
1405;DHT22;697;51.114;6.542;2024-02-23T08:35:12;8.70;98.40
1405;DHT22;697;51.114;6.542;2024-02-23T08:37:40;8.80;98.00
1405;DHT22;697;51.114;6.542;2024-02-23T08:40:09;8.80;98.20
1405;DHT22;697;51.114;6.542;2024-02-23T08:42:36;8.80;98.30
1405;DHT22;697;51.114;6.542;2024-02-23T08:45:05;8.90;98.00
1405;DHT22;697;51.114;6.542;2024-02-23T08:47:32;8.90;98.20
1405;DHT22;697;51.114;6.542;2024-02-23T08:50:01;8.90;98.10
1405;DHT22;697;51.114;6.542;2024-02-23T08:52:28;8.90;97.80
1405;DHT22;697;51.114;6.542;2024-02-23T08:54:55;8.90;97.90
1405;DHT22;697;51.114;6.542;2024-02-23T08:57:21;8.90;97.70
1405;DHT22;697;51.114;6.542;2024-02-23T08:59:48;9.00;97.90
1405;DHT22;697;51.114;6.542;2024-02-23T09:02:17;9.10;98.10
1405;DHT22;697;51.114;6.542;2024-02-23T09:04:44;9.20;97.50
1405;DHT22;697;51.114;6.542;2024-02-23T09:07:11;9.30;97.30
1405;DHT22;697;51.114;6.542;2024-02-23T09:09:38;9.40;97.10
1405;DHT22;697;51.114;6.542;2024-02-23T09:12:05;9.40;97.30
1405;DHT22;697;51.114;6.542;2024-02-23T09:14:36;9.50;96.70
1405;DHT22;697;51.114;6.542;2024-02-23T09:17:03;9.60;96.60
1405;DHT22;697;51.114;6.542;2024-02-23T09:19:32;9.60;96.30
1405;DHT22;697;51.114;6.542;2024-02-23T09:21:59;9.80;95.50
1405;DHT22;697;51.114;6.542;2024-02-23T09:24:27;9.90;95.80
1405;DHT22;697;51.114;6.542;2024-02-23T09:26:54;10.00;94.20
1405;DHT22;697;51.114;6.542;2024-02-23T09:29:21;10.00;93.70
1405;DHT22;697;51.114;6.542;2024-02-23T09:31:49;10.00;93.60
1405;DHT22;697;51.114;6.542;2024-02-23T09:34:15;10.00;93.80
1405;DHT22;697;51.114;6.542;2024-02-23T09:36:44;10.00;93.80
1405;DHT22;697;51.114;6.542;2024-02-23T09:39:11;10.00;93.20
1405;DHT22;697;51.114;6.542;2024-02-23T09:41:39;10.00;93.80
1405;DHT22;697;51.114;6.542;2024-02-23T09:44:08;10.00;93.40
1405;DHT22;697;51.114;6.542;2024-02-23T09:46:36;10.00;92.90
1405;DHT22;697;51.114;6.542;2024-02-23T09:49:03;10.10;93.30
1405;DHT22;697;51.114;6.542;2024-02-23T09:51:32;10.20;93.10
1405;DHT22;697;51.114;6.542;2024-02-23T09:54:01;10.40;92.70
1405;DHT22;697;51.114;6.542;2024-02-23T09:56:28;10.40;91.80
1405;DHT22;697;51.114;6.542;2024-02-23T09:58:56;10.60;91.90
1405;DHT22;697;51.114;6.542;2024-02-23T10:01:27;10.70;91.30
1405;DHT22;697;51.114;6.542;2024-02-23T10:03:57;10.70;90.90
1405;DHT22;697;51.114;6.542;2024-02-23T10:06:24;10.90;90.40
1405;DHT22;697;51.114;6.542;2024-02-23T10:08:51;10.80;90.80
1405;DHT22;697;51.114;6.542;2024-02-23T10:11:21;10.90;90.60
1405;DHT22;697;51.114;6.542;2024-02-23T10:13:48;11.00;89.70
1405;DHT22;697;51.114;6.542;2024-02-23T10:16:16;10.90;89.40
1405;DHT22;697;51.114;6.542;2024-02-23T10:18:42;10.80;89.30
1405;DHT22;697;51.114;6.542;2024-02-23T10:21:09;10.70;90.30
1405;DHT22;697;51.114;6.542;2024-02-23T10:23:37;10.70;90.50
1405;DHT22;697;51.114;6.542;2024-02-23T10:26:05;10.60;90.60
1405;DHT22;697;51.114;6.542;2024-02-23T10:28:34;10.60;90.10
1405;DHT22;697;51.114;6.542;2024-02-23T10:31:01;10.50;90.60
1405;DHT22;697;51.114;6.542;2024-02-23T10:33:28;10.40;90.70
1405;DHT22;697;51.114;6.542;2024-02-23T10:35:56;10.40;90.70
1405;DHT22;697;51.114;6.542;2024-02-23T10:38:23;10.40;90.60
1405;DHT22;697;51.114;6.542;2024-02-23T10:40:50;10.40;90.90
1405;DHT22;697;51.114;6.542;2024-02-23T10:43:27;10.40;91.10
1405;DHT22;697;51.114;6.542;2024-02-23T10:45:59;10.40;90.80
1405;DHT22;697;51.114;6.542;2024-02-23T10:48:28;10.40;90.10
1405;DHT22;697;51.114;6.542;2024-02-23T10:50:56;10.30;90.70
1405;DHT22;697;51.114;6.542;2024-02-23T10:53:24;10.30;90.90
1405;DHT22;697;51.114;6.542;2024-02-23T10:55:56;10.30;91.50
1405;DHT22;697;51.114;6.542;2024-02-23T10:58:23;10.30;90.90
1405;DHT22;697;51.114;6.542;2024-02-23T11:00:50;10.40;90.80
1405;DHT22;697;51.114;6.542;2024-02-23T11:03:19;10.50;91.10
1405;DHT22;697;51.114;6.542;2024-02-23T11:05:47;10.40;90.80
1405;DHT22;697;51.114;6.542;2024-02-23T11:08:17;10.50;90.70
1405;DHT22;697;51.114;6.542;2024-02-23T11:10:49;10.60;90.60
1405;DHT22;697;51.114;6.542;2024-02-23T11:13:17;10.70;90.40
1405;DHT22;697;51.114;6.542;2024-02-23T11:15:44;10.70;90.30
1405;DHT22;697;51.114;6.542;2024-02-23T11:18:27;10.80;89.10
1405;DHT22;697;51.114;6.542;2024-02-23T11:20:54;10.70;90.10
1405;DHT22;697;51.114;6.542;2024-02-23T11:23:22;10.70;90.20
1405;DHT22;697;51.114;6.542;2024-02-23T11:25:59;10.70;90.10
1405;DHT22;697;51.114;6.542;2024-02-23T11:28:28;10.80;90.00
1405;DHT22;697;51.114;6.542;2024-02-23T11:30:55;10.80;89.50
1405;DHT22;697;51.114;6.542;2024-02-23T11:33:29;10.70;90.10
1405;DHT22;697;51.114;6.542;2024-02-23T11:36:08;10.70;90.00
1405;DHT22;697;51.114;6.542;2024-02-23T11:38:34;11.10;90.50
1405;DHT22;697;51.114;6.542;2024-02-23T11:41:02;11.30;89.10
1405;DHT22;697;51.114;6.542;2024-02-23T11:43:29;11.40;87.90
1405;DHT22;697;51.114;6.542;2024-02-23T11:45:56;11.40;86.20
1405;DHT22;697;51.114;6.542;2024-02-23T11:48:23;11.40;86.10
1405;DHT22;697;51.114;6.542;2024-02-23T11:50:51;11.60;85.90
1405;DHT22;697;51.114;6.542;2024-02-23T11:53:18;11.80;85.30
1405;DHT22;697;51.114;6.542;2024-02-23T11:55:48;12.30;86.00
1405;DHT22;697;51.114;6.542;2024-02-23T11:58:15;12.60;82.50
1405;DHT22;697;51.114;6.542;2024-02-23T12:00:43;12.60;81.10
1405;DHT22;697;51.114;6.542;2024-02-23T12:03:11;12.40;81.20
1405;DHT22;697;51.114;6.542;2024-02-23T12:05:38;12.40;83.00
1405;DHT22;697;51.114;6.542;2024-02-23T12:08:06;12.30;82.20
1405;DHT22;697;51.114;6.542;2024-02-23T12:10:33;12.10;82.00
1405;DHT22;697;51.114;6.542;2024-02-23T12:13:00;11.80;82.70
1405;DHT22;697;51.114;6.542;2024-02-23T12:15:27;11.60;83.90
1405;DHT22;697;51.114;6.542;2024-02-23T12:17:54;11.60;85.50
1405;DHT22;697;51.114;6.542;2024-02-23T12:20:24;11.50;86.40
1405;DHT22;697;51.114;6.542;2024-02-23T12:22:51;11.50;86.20
1405;DHT22;697;51.114;6.542;2024-02-23T12:25:22;11.60;86.80
1405;DHT22;697;51.114;6.542;2024-02-23T12:27:54;11.50;86.80
1405;DHT22;697;51.114;6.542;2024-02-23T12:30:21;11.70;87.10
1405;DHT22;697;51.114;6.542;2024-02-23T12:32:48;11.90;86.80
1405;DHT22;697;51.114;6.542;2024-02-23T12:35:15;12.20;83.90
1405;DHT22;697;51.114;6.542;2024-02-23T12:37:43;12.20;83.80
1405;DHT22;697;51.114;6.542;2024-02-23T12:40:11;12.30;83.90
1405;DHT22;697;51.114;6.542;2024-02-23T12:42:39;12.30;84.50
1405;DHT22;697;51.114;6.542;2024-02-23T12:45:06;12.30;84.60
1405;DHT22;697;51.114;6.542;2024-02-23T12:47:33;12.20;83.80
1405;DHT22;697;51.114;6.542;2024-02-23T12:50:00;12.30;85.10
1405;DHT22;697;51.114;6.542;2024-02-23T12:52:27;12.40;83.30
1405;DHT22;697;51.114;6.542;2024-02-23T12:54:54;12.50;83.40
1405;DHT22;697;51.114;6.542;2024-02-23T12:57:20;12.50;81.80
1405;DHT22;697;51.114;6.542;2024-02-23T12:59:48;12.40;80.90
1405;DHT22;697;51.114;6.542;2024-02-23T13:02:15;12.90;82.00
1405;DHT22;697;51.114;6.542;2024-02-23T13:04:42;13.40;79.00
1405;DHT22;697;51.114;6.542;2024-02-23T13:07:14;13.40;76.40
1405;DHT22;697;51.114;6.542;2024-02-23T13:09:41;13.50;75.70
1405;DHT22;697;51.114;6.542;2024-02-23T13:12:08;13.40;76.90
1405;DHT22;697;51.114;6.542;2024-02-23T13:14:35;13.30;77.30
1405;DHT22;697;51.114;6.542;2024-02-23T13:17:03;13.20;77.60
1405;DHT22;697;51.114;6.542;2024-02-23T13:19:30;13.10;77.30
1405;DHT22;697;51.114;6.542;2024-02-23T13:21:56;13.00;77.30
1405;DHT22;697;51.114;6.542;2024-02-23T13:24:25;12.80;76.80
1405;DHT22;697;51.114;6.542;2024-02-23T13:26:52;12.60;78.10
1405;DHT22;697;51.114;6.542;2024-02-23T13:29:19;12.40;79.10
1405;DHT22;697;51.114;6.542;2024-02-23T13:31:46;12.40;79.40
1405;DHT22;697;51.114;6.542;2024-02-23T13:34:14;12.30;79.30
1405;DHT22;697;51.114;6.542;2024-02-23T13:36:43;12.40;80.80
1405;DHT22;697;51.114;6.542;2024-02-23T13:39:10;12.80;81.00
1405;DHT22;697;51.114;6.542;2024-02-23T13:41:37;12.90;77.60
1405;DHT22;697;51.114;6.542;2024-02-23T13:44:04;12.80;76.30
1405;DHT22;697;51.114;6.542;2024-02-23T13:46:30;12.60;76.90
1405;DHT22;697;51.114;6.542;2024-02-23T13:49:04;12.50;76.40
1405;DHT22;697;51.114;6.542;2024-02-23T13:51:33;12.30;76.90
1405;DHT22;697;51.114;6.542;2024-02-23T13:54:00;12.20;78.50
1405;DHT22;697;51.114;6.542;2024-02-23T13:56:27;12.30;79.90
1405;DHT22;697;51.114;6.542;2024-02-23T13:58:53;12.30;79.50
1405;DHT22;697;51.114;6.542;2024-02-23T14:01:20;12.30;80.30
1405;DHT22;697;51.114;6.542;2024-02-23T14:03:47;12.20;80.80
1405;DHT22;697;51.114;6.542;2024-02-23T14:06:14;12.10;82.00
1405;DHT22;697;51.114;6.542;2024-02-23T14:08:42;12.00;81.20
1405;DHT22;697;51.114;6.542;2024-02-23T14:11:10;11.80;83.90
1405;DHT22;697;51.114;6.542;2024-02-23T14:13:37;11.70;84.40
1405;DHT22;697;51.114;6.542;2024-02-23T14:16:04;11.70;84.10
1405;DHT22;697;51.114;6.542;2024-02-23T14:18:31;11.60;84.70
1405;DHT22;697;51.114;6.542;2024-02-23T14:21:02;11.60;85.40
1405;DHT22;697;51.114;6.542;2024-02-23T14:23:29;11.70;84.50
1405;DHT22;697;51.114;6.542;2024-02-23T14:25:57;11.70;84.40
1405;DHT22;697;51.114;6.542;2024-02-23T14:28:24;11.70;84.90
1405;DHT22;697;51.114;6.542;2024-02-23T14:30:51;11.70;83.90
1405;DHT22;697;51.114;6.542;2024-02-23T14:33:19;11.70;82.80
1405;DHT22;697;51.114;6.542;2024-02-23T14:35:46;11.70;83.00
1405;DHT22;697;51.114;6.542;2024-02-23T14:38:12;11.70;80.80
1405;DHT22;697;51.114;6.542;2024-02-23T14:40:39;11.60;81.00
1405;DHT22;697;51.114;6.542;2024-02-23T14:43:07;11.60;83.00
1405;DHT22;697;51.114;6.542;2024-02-23T14:45:35;11.60;84.10
1405;DHT22;697;51.114;6.542;2024-02-23T14:48:02;11.60;84.00
1405;DHT22;697;51.114;6.542;2024-02-23T14:50:29;11.60;83.20
1405;DHT22;697;51.114;6.542;2024-02-23T14:52:55;11.50;83.10
1405;DHT22;697;51.114;6.542;2024-02-23T14:55:22;11.50;84.50
1405;DHT22;697;51.114;6.542;2024-02-23T14:57:49;11.60;84.60
1405;DHT22;697;51.114;6.542;2024-02-23T15:00:18;11.60;84.60
1405;DHT22;697;51.114;6.542;2024-02-23T15:02:45;11.70;83.80
1405;DHT22;697;51.114;6.542;2024-02-23T15:05:12;11.70;83.80
1405;DHT22;697;51.114;6.542;2024-02-23T15:07:39;11.80;84.30
1405;DHT22;697;51.114;6.542;2024-02-23T15:10:06;11.80;84.20
1405;DHT22;697;51.114;6.542;2024-02-23T15:12:34;11.80;83.00
1405;DHT22;697;51.114;6.542;2024-02-23T15:15:01;11.70;83.10
1405;DHT22;697;51.114;6.542;2024-02-23T15:17:31;11.60;83.20
1405;DHT22;697;51.114;6.542;2024-02-23T15:19:57;11.50;84.70
1405;DHT22;697;51.114;6.542;2024-02-23T15:22:25;11.50;85.30
1405;DHT22;697;51.114;6.542;2024-02-23T15:24:52;11.60;88.00
1405;DHT22;697;51.114;6.542;2024-02-23T15:27:19;11.70;89.00
1405;DHT22;697;51.114;6.542;2024-02-23T15:29:46;11.70;88.20
1405;DHT22;697;51.114;6.542;2024-02-23T15:32:14;11.80;89.20
1405;DHT22;697;51.114;6.542;2024-02-23T15:34:42;11.70;87.60
1405;DHT22;697;51.114;6.542;2024-02-23T15:37:09;11.70;88.40
1405;DHT22;697;51.114;6.542;2024-02-23T15:39:39;11.60;90.00
1405;DHT22;697;51.114;6.542;2024-02-23T15:42:06;11.50;91.10
1405;DHT22;697;51.114;6.542;2024-02-23T15:44:33;11.50;91.60
1405;DHT22;697;51.114;6.542;2024-02-23T15:47:00;11.60;91.70
1405;DHT22;697;51.114;6.542;2024-02-23T15:49:27;11.50;91.70
1405;DHT22;697;51.114;6.542;2024-02-23T15:51:55;11.50;91.80
1405;DHT22;697;51.114;6.542;2024-02-23T15:54:22;11.30;92.30
1405;DHT22;697;51.114;6.542;2024-02-23T15:56:48;11.20;92.80
1405;DHT22;697;51.114;6.542;2024-02-23T15:59:16;11.10;93.20
1405;DHT22;697;51.114;6.542;2024-02-23T16:01:42;11.10;93.90
1405;DHT22;697;51.114;6.542;2024-02-23T16:04:09;11.10;94.20
1405;DHT22;697;51.114;6.542;2024-02-23T16:06:36;11.00;94.50
1405;DHT22;697;51.114;6.542;2024-02-23T16:09:05;11.00;94.70
1405;DHT22;697;51.114;6.542;2024-02-23T16:11:33;11.00;94.90
1405;DHT22;697;51.114;6.542;2024-02-23T16:14:00;11.00;95.10
1405;DHT22;697;51.114;6.542;2024-02-23T16:16:28;11.00;95.20
1405;DHT22;697;51.114;6.542;2024-02-23T16:18:55;10.90;95.20
1405;DHT22;697;51.114;6.542;2024-02-23T16:21:22;10.90;95.00
1405;DHT22;697;51.114;6.542;2024-02-23T16:23:48;10.90;95.00
1405;DHT22;697;51.114;6.542;2024-02-23T16:26:17;10.90;95.10
1405;DHT22;697;51.114;6.542;2024-02-23T16:28:44;10.90;95.40